Hardwick, Minnesota
Current Conditions -  °F | °C
As of 9:14 PM on Thursday 18 Dec 2014 (Local Time) from KLYV Reporting Station
Overcast Overcast  
Wind Chill: 23°   Ceiling: 1300
Heat Index: 28°   Visibility: 7mi
Dew Point: 27°   Wind: 5mph
Humidity: 93%   Direction: 170°S
Pressure: 30.18"   Gusts: NA
Location:  43.77°N, 96.2°W
Report Text: KLYV 190314Z AUTO 17004KT 7SM OVC013 M02/M03 A3018 RMK AO2
Loading
Personal Weather Stations






























Interactive Weather Map New forecast layout! Learn more

10-Day Weather Forecast

Advertisements
Track Severe Weather on mobile